createdAt,value
2022-11-23T00:02:06.315Z,2.03
2022-11-23T00:04:32.858Z,1.97
2022-11-23T00:06:59.383Z,2.00
2022-11-23T00:09:25.829Z,2.00
2022-11-23T00:11:52.341Z,2.00
2022-11-23T00:14:18.777Z,1.93
2022-11-23T00:16:45.249Z,1.97
2022-11-23T00:19:11.725Z,1.77
2022-11-23T00:21:38.225Z,1.87
2022-11-23T00:24:05.087Z,2.20
2022-11-23T00:26:31.606Z,1.80
2022-11-23T00:28:58.107Z,1.80
2022-11-23T00:31:25.636Z,1.70
2022-11-23T00:33:54.153Z,1.73
2022-11-23T00:36:22.579Z,1.60
2022-11-23T00:38:50.158Z,1.53
2022-11-23T00:41:22.646Z,2.07
2022-11-23T00:43:49.875Z,1.93
2022-11-23T00:46:20.608Z,1.40
2022-11-23T00:48:49.661Z,1.87
2022-11-23T00:51:18.713Z,2.07
2022-11-23T00:53:45.838Z,2.10
2022-11-23T00:56:13.151Z,1.50
2022-11-23T00:58:39.621Z,1.40
2022-11-23T01:01:08.184Z,1.87
2022-11-23T01:03:35.681Z,2.10
2022-11-23T01:06:07.049Z,1.93
2022-11-23T01:08:33.587Z,2.23
2022-11-23T01:11:02.685Z,1.97
2022-11-23T01:13:29.916Z,2.33
2022-11-23T01:15:56.525Z,2.30
2022-11-23T01:18:24.413Z,1.80
2022-11-23T01:20:51.156Z,2.40
2022-11-23T01:23:17.855Z,2.10
2022-11-23T01:25:44.498Z,2.00
2022-11-23T01:28:11.112Z,2.30
2022-11-23T01:30:37.662Z,1.70
2022-11-23T01:33:04.471Z,1.80
2022-11-23T01:35:31.231Z,1.90
2022-11-23T01:37:57.745Z,2.60
2022-11-23T01:40:24.434Z,1.90
2022-11-23T01:43:01.344Z,1.80
2022-11-23T01:45:35.328Z,2.00
2022-11-23T01:48:04.787Z,1.50
2022-11-23T01:50:31.371Z,1.80
2022-11-23T01:52:58.362Z,1.73
2022-11-23T01:55:26.611Z,2.20
2022-11-23T01:57:53.826Z,2.13
2022-11-23T02:00:20.445Z,2.10
2022-11-23T02:02:57.745Z,2.10
2022-11-23T02:05:30.706Z,2.00
2022-11-23T02:07:59.473Z,2.03
2022-11-23T02:10:26.811Z,2.03
2022-11-23T02:12:54.560Z,1.67
2022-11-23T02:15:21.165Z,2.23
2022-11-23T02:17:48.054Z,2.07
2022-11-23T02:20:18.356Z,2.47
2022-11-23T02:23:15.901Z,1.70
2022-11-23T02:25:45.544Z,1.73
2022-11-23T02:28:15.835Z,1.60
2022-11-23T02:30:44.257Z,1.80
2022-11-23T02:33:10.775Z,2.17
2022-11-23T02:35:51.517Z,1.80
2022-11-23T02:38:19.175Z,1.70
2022-11-23T02:40:46.054Z,2.10
2022-11-23T02:43:12.644Z,2.00
2022-11-23T02:45:41.779Z,2.33
2022-11-23T02:48:08.628Z,2.03
2022-11-23T02:50:35.278Z,1.97
2022-11-23T02:53:01.783Z,1.70
2022-11-23T02:55:28.690Z,2.27
2022-11-23T02:57:55.115Z,2.20
2022-11-23T03:00:21.766Z,1.90
2022-11-23T03:02:48.280Z,2.30
2022-11-23T03:05:14.771Z,2.30
2022-11-23T03:07:41.430Z,1.77
2022-11-23T03:10:08.617Z,2.30
2022-11-23T03:12:35.230Z,2.40
2022-11-23T03:15:01.757Z,1.80
2022-11-23T03:17:28.237Z,2.47
2022-11-23T03:19:54.819Z,2.00
2022-11-23T03:22:21.663Z,2.10
2022-11-23T03:24:48.365Z,2.17
2022-11-23T03:27:15.052Z,1.90
2022-11-23T03:29:41.488Z,2.30
2022-11-23T03:32:07.972Z,1.97
2022-11-23T03:34:34.759Z,2.80
2022-11-23T03:37:01.831Z,2.07
2022-11-23T03:39:28.269Z,2.30
2022-11-23T03:41:54.738Z,2.00
2022-11-23T03:44:21.176Z,2.13
2022-11-23T03:46:47.703Z,2.00
2022-11-23T03:49:14.827Z,3.07
2022-11-23T03:51:41.329Z,2.90
2022-11-23T03:54:08.320Z,2.53
2022-11-23T03:56:35.283Z,2.53
2022-11-23T03:59:01.965Z,2.70
2022-11-23T04:01:28.565Z,2.80
2022-11-23T04:03:55.424Z,2.87
2022-11-23T04:06:22.240Z,2.70
2022-11-23T04:08:48.835Z,3.03
2022-11-23T04:11:15.340Z,2.50
2022-11-23T04:13:41.884Z,2.67
2022-11-23T04:16:08.843Z,3.20
2022-11-23T04:18:35.386Z,3.00
2022-11-23T04:21:01.966Z,2.33
2022-11-23T04:23:28.546Z,2.47
2022-11-23T04:25:55.050Z,2.40
2022-11-23T04:28:21.484Z,2.50
2022-11-23T04:30:48.084Z,2.43
2022-11-23T04:33:14.703Z,2.13
2022-11-23T04:35:41.200Z,2.43
2022-11-23T04:38:07.662Z,2.63
2022-11-23T04:40:34.204Z,2.20
2022-11-23T04:43:02.141Z,3.07
2022-11-23T04:45:28.751Z,2.90
2022-11-23T04:47:55.242Z,2.93
2022-11-23T04:50:21.772Z,2.50
2022-11-23T04:52:48.267Z,2.60
2022-11-23T04:55:14.784Z,2.50
2022-11-23T04:57:41.210Z,2.33
2022-11-23T05:00:08.467Z,2.57
2022-11-23T05:02:34.914Z,2.50
2022-11-23T05:05:01.627Z,2.07
2022-11-23T05:07:28.144Z,2.37
2022-11-23T05:09:54.634Z,2.10
2022-11-23T05:12:21.169Z,2.57
2022-11-23T05:14:47.639Z,2.23
2022-11-23T05:17:14.121Z,2.63
2022-11-23T05:19:40.899Z,2.10
2022-11-23T05:22:07.487Z,2.20
2022-11-23T05:24:34.574Z,2.27
2022-11-23T05:27:01.196Z,2.03
2022-11-23T05:29:27.634Z,2.80
2022-11-23T05:31:54.608Z,1.90
2022-11-23T05:34:21.157Z,2.20
2022-11-23T05:36:47.598Z,2.00
2022-11-23T05:39:14.053Z,2.40
2022-11-23T05:41:40.553Z,2.23
2022-11-23T05:44:06.998Z,2.10
2022-11-23T05:46:33.471Z,2.03
2022-11-23T05:48:59.894Z,2.40
2022-11-23T05:51:26.318Z,2.60
2022-11-23T05:53:53.310Z,2.97
2022-11-23T05:56:19.881Z,2.63
2022-11-23T05:58:46.318Z,2.80
2022-11-23T06:01:13.639Z,2.03
2022-11-23T06:03:40.118Z,2.73
2022-11-23T06:06:06.682Z,2.20
2022-11-23T06:08:33.192Z,2.50
2022-11-23T06:11:02.706Z,2.43
2022-11-23T06:13:29.276Z,2.33
2022-11-23T06:15:55.706Z,2.20
2022-11-23T06:18:22.197Z,1.90
2022-11-23T06:20:48.677Z,2.07
2022-11-23T06:23:15.167Z,2.63
2022-11-23T06:25:41.843Z,2.50
2022-11-23T06:28:08.438Z,2.40
2022-11-23T06:30:34.893Z,2.93
2022-11-23T06:33:05.438Z,2.57
2022-11-23T06:35:31.891Z,2.30
2022-11-23T06:37:58.381Z,2.67
2022-11-23T06:40:24.839Z,2.30
2022-11-23T06:42:51.378Z,2.00
2022-11-23T06:45:18.049Z,2.93
2022-11-23T06:47:44.558Z,2.80
2022-11-23T06:50:11.616Z,3.17
2022-11-23T06:52:38.071Z,2.50
2022-11-23T06:55:04.826Z,2.17
2022-11-23T06:57:31.646Z,2.15
2022-11-23T06:59:58.117Z,2.70
2022-11-23T07:02:24.541Z,2.50
2022-11-23T07:04:52.989Z,2.33
2022-11-23T07:07:19.532Z,2.10
2022-11-23T07:09:46.102Z,2.40
2022-11-23T07:12:12.560Z,2.27
2022-11-23T07:14:39.100Z,2.33
2022-11-23T07:17:05.526Z,2.13
2022-11-23T07:19:32.416Z,2.30
2022-11-23T07:21:59.205Z,2.50
2022-11-23T07:24:25.732Z,2.60
2022-11-23T07:26:52.234Z,2.90
2022-11-23T07:29:18.730Z,2.37
2022-11-23T07:31:45.199Z,2.63
2022-11-23T07:34:12.034Z,2.30
2022-11-23T07:36:38.711Z,2.10
2022-11-23T07:39:05.205Z,2.23
2022-11-23T07:41:31.875Z,2.43
2022-11-23T07:43:58.371Z,2.73
2022-11-23T07:46:24.833Z,2.50
2022-11-23T07:48:51.292Z,2.20
2022-11-23T07:51:19.665Z,1.90
2022-11-23T07:53:47.372Z,2.63
2022-11-23T07:56:13.828Z,2.03
2022-11-23T07:58:40.274Z,1.97
2022-11-23T08:01:06.775Z,2.43
2022-11-23T08:03:33.215Z,2.90
2022-11-23T08:05:59.751Z,2.30
2022-11-23T08:08:26.319Z,2.60
2022-11-23T08:10:54.209Z,2.83
2022-11-23T08:13:22.279Z,2.70
2022-11-23T08:15:55.027Z,2.13
2022-11-23T08:18:23.180Z,3.43
2022-11-23T08:20:49.961Z,2.10
2022-11-23T08:23:16.525Z,2.50
2022-11-23T08:25:42.987Z,2.43
2022-11-23T08:28:09.481Z,2.10
2022-11-23T08:30:36.088Z,2.30
2022-11-23T08:33:07.397Z,2.13
2022-11-23T08:35:35.290Z,2.00
2022-11-23T08:38:01.902Z,2.33
2022-11-23T08:40:28.490Z,2.33
2022-11-23T08:42:55.730Z,1.97
2022-11-23T08:45:22.458Z,2.23
2022-11-23T08:47:49.140Z,2.20
2022-11-23T08:50:15.790Z,2.13
2022-11-23T08:52:42.344Z,2.37
2022-11-23T08:55:09.124Z,2.37
2022-11-23T08:57:35.815Z,2.53
2022-11-23T09:00:03.758Z,2.47
2022-11-23T09:02:30.246Z,1.80
2022-11-23T09:04:57.094Z,2.40
2022-11-23T09:07:23.813Z,2.43
2022-11-23T09:09:50.284Z,2.70
2022-11-23T09:12:16.838Z,2.20
2022-11-23T09:14:43.402Z,2.40
2022-11-23T09:17:09.911Z,2.17
2022-11-23T09:19:36.749Z,2.67
2022-11-23T09:22:03.411Z,1.97
2022-11-23T09:24:30.081Z,2.57
2022-11-23T09:26:56.782Z,2.50
2022-11-23T09:29:23.329Z,2.53
2022-11-23T09:31:49.846Z,2.20
2022-11-23T09:34:16.592Z,2.50
2022-11-23T09:36:43.046Z,2.53
2022-11-23T09:39:09.547Z,2.03
2022-11-23T09:42:00.271Z,2.13
2022-11-23T09:44:41.936Z,2.73
2022-11-23T09:47:46.172Z,2.00
2022-11-23T09:50:23.126Z,2.67
2022-11-23T09:52:51.171Z,2.27
2022-11-23T09:55:36.531Z,2.23
2022-11-23T09:58:05.968Z,3.63
2022-11-23T10:01:15.758Z,3.00
2022-11-23T10:03:48.886Z,2.03
2022-11-23T10:06:26.393Z,2.67
2022-11-23T10:09:00.017Z,2.70
2022-11-23T10:11:44.267Z,2.77
2022-11-23T10:14:24.027Z,2.60
2022-11-23T10:16:56.334Z,2.17
2022-11-23T10:19:55.288Z,2.93
2022-11-23T10:22:41.238Z,2.13
2022-11-23T10:25:17.092Z,3.00
2022-11-23T10:27:47.872Z,3.30
2022-11-23T10:30:16.606Z,2.17
2022-11-23T10:33:24.588Z,2.37
2022-11-23T10:35:51.068Z,2.90
2022-11-23T10:38:20.141Z,2.20
2022-11-23T10:40:54.624Z,2.67
2022-11-23T10:43:25.378Z,2.30
2022-11-23T10:45:54.778Z,2.43
2022-11-23T10:48:35.282Z,2.03
2022-11-23T10:51:40.316Z,2.43
2022-11-23T10:54:21.455Z,2.47
2022-11-23T10:56:50.140Z,2.57
2022-11-23T10:59:26.950Z,1.93
2022-11-23T11:02:17.971Z,2.43
2022-11-23T11:04:45.956Z,1.80
2022-11-23T11:07:24.009Z,2.30
2022-11-23T11:09:57.442Z,2.60
2022-11-23T11:12:25.003Z,2.00
2022-11-23T11:15:15.352Z,2.57
2022-11-23T11:17:42.305Z,2.23
2022-11-23T11:20:28.232Z,2.70
2022-11-23T11:23:16.014Z,2.30
2022-11-23T11:25:42.997Z,2.87
2022-11-23T11:28:40.610Z,1.93
2022-11-23T11:31:30.300Z,2.13
2022-11-23T11:34:27.843Z,1.90
2022-11-23T11:37:02.429Z,2.17
2022-11-23T11:40:10.660Z,2.30
2022-11-23T11:43:07.769Z,2.00
2022-11-23T11:45:46.290Z,2.20
2022-11-23T11:48:27.741Z,2.40
2022-11-23T11:51:00.688Z,2.47
2022-11-23T11:53:36.911Z,1.90
2022-11-23T11:56:23.246Z,2.20
2022-11-23T11:58:57.023Z,2.37
2022-11-23T12:01:57.291Z,2.13
2022-11-23T12:04:35.767Z,1.70
2022-11-23T12:07:10.555Z,1.80
2022-11-23T12:09:40.627Z,1.93
2022-11-23T12:12:16.278Z,2.10
2022-11-23T12:14:43.998Z,1.90
2022-11-23T12:17:33.954Z,1.47
2022-11-23T12:20:12.274Z,1.93
2022-11-23T12:23:17.985Z,1.90
2022-11-23T12:25:58.057Z,1.93
2022-11-23T12:28:58.790Z,1.20
2022-11-23T12:31:40.797Z,1.60
2022-11-23T12:34:18.908Z,1.90
2022-11-23T12:37:07.127Z,1.70
2022-11-23T12:39:55.288Z,1.63
2022-11-23T12:42:53.510Z,1.57
2022-11-23T12:45:45.301Z,1.80
2022-11-23T12:48:18.746Z,1.53
2022-11-23T12:51:01.408Z,1.80
2022-11-23T12:54:01.758Z,1.50
2022-11-23T12:56:44.320Z,1.40
2022-11-23T12:59:11.906Z,1.70
2022-11-23T13:01:47.058Z,2.07
2022-11-23T13:04:41.229Z,1.60
2022-11-23T13:07:41.006Z,1.13
2022-11-23T13:10:21.843Z,1.50
2022-11-23T13:12:51.345Z,1.60
2022-11-23T13:15:36.274Z,1.43
2022-11-23T13:18:28.049Z,1.50
2022-11-23T13:21:12.386Z,1.50
2022-11-23T13:23:40.336Z,1.90
2022-11-23T13:26:12.479Z,1.80
2022-11-23T13:28:38.976Z,1.40
2022-11-23T13:31:20.980Z,1.47
2022-11-23T13:33:50.200Z,1.90
2022-11-23T13:37:10.636Z,1.57
2022-11-23T13:39:39.536Z,1.47
2022-11-23T13:42:06.396Z,2.00
2022-11-23T13:44:33.561Z,2.00
2022-11-23T13:47:01.744Z,1.80
2022-11-23T13:49:31.206Z,1.70
2022-11-23T13:52:22.576Z,1.80
2022-11-23T13:55:10.950Z,1.90
2022-11-23T13:57:42.448Z,1.70
2022-11-23T14:00:47.427Z,2.43
2022-11-23T14:03:51.663Z,1.70
2022-11-23T14:06:40.130Z,2.00
2022-11-23T14:09:28.126Z,2.07
2022-11-23T14:12:03.680Z,1.60
2022-11-23T14:14:49.187Z,2.00
2022-11-23T14:17:59.542Z,1.40
2022-11-23T14:21:05.497Z,1.83
2022-11-23T14:23:40.367Z,1.47
2022-11-23T14:26:25.051Z,1.53
2022-11-23T14:29:26.429Z,1.73
2022-11-23T14:32:05.155Z,1.93
2022-11-23T14:35:02.623Z,1.60
2022-11-23T14:38:04.530Z,1.93
2022-11-23T14:40:46.178Z,1.90
2022-11-23T14:43:17.460Z,1.80
2022-11-23T14:45:44.329Z,1.73
2022-11-23T14:48:28.354Z,1.80
2022-11-23T14:51:01.158Z,1.80
2022-11-23T14:53:31.304Z,1.90
2022-11-23T14:55:59.331Z,1.80
2022-11-23T14:58:30.869Z,2.40
2022-11-23T15:01:02.292Z,1.97
2022-11-23T15:06:25.036Z,1.87
2022-11-23T15:09:08.466Z,2.20
2022-11-23T15:11:36.954Z,2.17
2022-11-23T15:14:03.811Z,2.40
2022-11-23T15:16:40.020Z,2.13
2022-11-23T15:19:39.103Z,2.50
2022-11-23T15:22:05.562Z,2.40
2022-11-23T15:24:32.306Z,2.20
2022-11-23T15:27:12.179Z,2.00
2022-11-23T15:29:40.317Z,2.20
2022-11-23T15:32:32.727Z,2.07
2022-11-23T15:35:04.593Z,2.07
2022-11-23T15:37:32.690Z,2.43
2022-11-23T15:40:00.628Z,1.87
2022-11-23T15:42:28.590Z,2.10
2022-11-23T15:44:55.720Z,2.30
2022-11-23T15:47:27.733Z,2.23
2022-11-23T15:50:02.281Z,2.33
2022-11-23T15:52:35.953Z,2.70
2022-11-23T15:55:09.241Z,3.00
2022-11-23T15:57:37.671Z,2.83
2022-11-23T16:00:06.640Z,2.70
2022-11-23T16:02:33.607Z,2.30
2022-11-23T16:05:11.150Z,2.47
2022-11-23T16:07:51.118Z,2.53
2022-11-23T16:10:25.238Z,2.87
2022-11-23T16:12:54.035Z,3.30
2022-11-23T16:15:47.513Z,2.63
2022-11-23T16:18:14.048Z,3.03
2022-11-23T16:21:02.285Z,2.40
2022-11-23T16:23:41.977Z,2.93
2022-11-23T16:26:08.831Z,2.63
2022-11-23T16:28:39.075Z,2.63
2022-11-23T16:31:06.437Z,2.83
2022-11-23T16:33:34.153Z,2.50
2022-11-23T16:36:00.822Z,3.10
2022-11-23T16:38:27.564Z,3.03
2022-11-23T16:40:54.084Z,2.83
2022-11-23T16:43:21.355Z,2.77
2022-11-23T16:45:51.311Z,2.83
2022-11-23T16:48:24.057Z,2.87
2022-11-23T16:50:51.311Z,2.60
2022-11-23T16:53:19.417Z,2.80
2022-11-23T16:55:50.220Z,2.63
2022-11-23T16:58:17.028Z,3.40
2022-11-23T17:00:44.148Z,3.30
2022-11-23T17:03:18.692Z,3.20
2022-11-23T17:05:45.639Z,2.93
2022-11-23T17:08:15.626Z,2.73
2022-11-23T17:10:45.170Z,2.87
2022-11-23T17:13:20.296Z,2.63
2022-11-23T17:15:46.758Z,2.67
2022-11-23T17:18:15.014Z,3.10
2022-11-23T17:20:42.176Z,2.60
2022-11-23T17:23:09.162Z,2.67
2022-11-23T17:25:37.642Z,3.27
2022-11-23T17:28:05.357Z,2.70
2022-11-23T17:30:33.101Z,3.27
2022-11-23T17:33:00.604Z,2.57
2022-11-23T17:35:27.636Z,2.90
2022-11-23T17:37:54.229Z,2.97
2022-11-23T17:40:22.321Z,3.33
2022-11-23T17:42:49.102Z,2.93
2022-11-23T17:45:15.955Z,2.80
2022-11-23T17:47:44.724Z,3.23
2022-11-23T17:50:14.176Z,3.00
2022-11-23T17:52:44.351Z,3.30
2022-11-23T17:55:12.631Z,2.73
2022-11-23T17:57:39.781Z,2.90
2022-11-23T18:00:20.611Z,2.70
2022-11-23T18:02:47.565Z,2.30
2022-11-23T18:05:19.711Z,2.73
2022-11-23T18:07:48.765Z,2.80
2022-11-23T18:10:15.804Z,2.93
2022-11-23T18:12:44.671Z,2.30
2022-11-23T18:15:11.927Z,2.97
2022-11-23T18:17:38.711Z,2.50
2022-11-23T18:20:08.143Z,2.70
2022-11-23T18:22:35.118Z,2.50
2022-11-23T18:25:01.725Z,2.47
2022-11-23T18:27:29.765Z,2.80
2022-11-23T18:29:56.495Z,2.57
2022-11-23T18:32:23.069Z,2.90
2022-11-23T18:34:49.542Z,2.50
2022-11-23T18:37:16.118Z,2.70
2022-11-23T18:39:42.655Z,2.17
2022-11-23T18:42:09.193Z,2.90
2022-11-23T18:44:35.853Z,3.17
2022-11-23T18:47:02.423Z,3.20
2022-11-23T18:49:28.970Z,3.10
2022-11-23T18:51:55.481Z,3.17
2022-11-23T18:54:21.970Z,3.17
2022-11-23T18:56:48.624Z,2.60
2022-11-23T18:59:28.968Z,2.60
2022-11-23T19:02:01.734Z,3.00
2022-11-23T19:04:28.337Z,2.80
2022-11-23T19:06:54.763Z,3.23
2022-11-23T19:09:21.229Z,2.77
2022-11-23T19:11:47.682Z,2.70
2022-11-23T19:14:14.257Z,2.60
2022-11-23T19:16:41.108Z,2.60
2022-11-23T19:19:07.710Z,2.63
2022-11-23T19:21:35.822Z,3.07
2022-11-23T19:24:03.539Z,2.63
2022-11-23T19:26:31.686Z,3.37
2022-11-23T19:28:59.474Z,2.60
2022-11-23T19:31:28.566Z,2.57
2022-11-23T19:34:01.521Z,2.37
2022-11-23T19:36:29.842Z,2.57
2022-11-23T19:38:58.707Z,2.40
2022-11-23T19:41:29.769Z,2.03
2022-11-23T19:43:58.460Z,2.70
2022-11-23T19:46:26.549Z,2.60
2022-11-23T19:48:55.227Z,2.40
2022-11-23T19:51:21.790Z,2.50
2022-11-23T19:53:49.335Z,2.50
2022-11-23T19:56:20.898Z,2.30
2022-11-23T19:58:51.629Z,2.50
2022-11-23T20:01:19.891Z,2.67
2022-11-23T20:03:48.812Z,3.13
2022-11-23T20:06:18.525Z,2.07
2022-11-23T20:08:45.476Z,2.60
2022-11-23T20:11:14.294Z,2.30
2022-11-23T20:13:41.395Z,2.70
2022-11-23T20:16:10.846Z,2.57
2022-11-23T20:18:37.390Z,2.63
2022-11-23T20:21:04.390Z,2.77
2022-11-23T20:23:30.839Z,2.60
2022-11-23T20:25:57.908Z,2.70
2022-11-23T20:28:25.594Z,2.53
2022-11-23T20:30:52.403Z,2.60
2022-11-23T20:33:19.576Z,2.87
2022-11-23T20:35:48.415Z,2.80
2022-11-23T20:38:17.752Z,2.57
2022-11-23T20:40:44.202Z,3.23
2022-11-23T20:43:10.656Z,2.70
2022-11-23T20:45:37.191Z,2.80
2022-11-23T20:48:03.784Z,2.70
2022-11-23T20:50:32.064Z,3.73
2022-11-23T20:53:03.254Z,3.17
2022-11-23T20:55:32.197Z,3.27
2022-11-23T20:57:58.866Z,3.33
2022-11-23T21:00:25.437Z,2.83
2022-11-23T21:02:53.977Z,3.10
2022-11-23T21:05:20.766Z,3.37
2022-11-23T21:07:48.003Z,3.17
2022-11-23T21:10:33.931Z,3.37
2022-11-23T21:13:19.717Z,3.90
2022-11-23T21:15:46.506Z,3.73
2022-11-23T21:18:13.302Z,3.43
2022-11-23T21:20:40.983Z,3.80
2022-11-23T21:23:07.498Z,3.47
2022-11-23T21:25:34.939Z,4.00
2022-11-23T21:28:03.260Z,4.33
2022-11-23T21:30:30.733Z,3.90
2022-11-23T21:32:57.682Z,3.97
2022-11-23T21:35:24.495Z,4.00
2022-11-23T21:37:51.277Z,4.07
2022-11-23T21:40:18.555Z,3.70
2022-11-23T21:42:45.027Z,4.10
2022-11-23T21:45:11.997Z,4.20
2022-11-23T21:47:38.646Z,3.80
2022-11-23T21:50:05.543Z,3.73
2022-11-23T21:52:32.002Z,4.00
2022-11-23T21:54:58.461Z,3.93
2022-11-23T21:57:24.954Z,3.70
2022-11-23T21:59:51.448Z,4.30
2022-11-23T22:02:18.091Z,3.90
2022-11-23T22:04:44.838Z,4.20
2022-11-23T22:07:12.085Z,3.67
2022-11-23T22:09:38.922Z,4.07
2022-11-23T22:12:06.446Z,4.50
2022-11-23T22:14:33.284Z,4.30
2022-11-23T22:17:00.630Z,3.53
2022-11-23T22:19:27.750Z,3.80
2022-11-23T22:21:54.275Z,3.90
2022-11-23T22:24:22.622Z,4.67
2022-11-23T22:26:49.579Z,4.30
2022-11-23T22:29:16.499Z,3.63
2022-11-23T22:31:43.760Z,4.17
2022-11-23T22:34:12.459Z,3.97
2022-11-23T22:36:39.275Z,5.07
2022-11-23T22:39:06.840Z,3.67
2022-11-23T22:41:37.014Z,3.90
2022-11-23T22:44:09.403Z,4.20
2022-11-23T22:46:37.357Z,4.20
2022-11-23T22:49:04.530Z,4.13
2022-11-23T22:51:31.118Z,4.10
2022-11-23T22:54:00.174Z,4.30
2022-11-23T22:56:27.856Z,4.33
2022-11-23T22:58:54.946Z,3.47
2022-11-23T23:01:24.082Z,4.13
2022-11-23T23:03:55.656Z,4.37
2022-11-23T23:06:25.405Z,3.87
2022-11-23T23:08:57.562Z,3.70
2022-11-23T23:11:26.237Z,3.90
2022-11-23T23:13:54.567Z,4.00
2022-11-23T23:16:21.626Z,3.33
2022-11-23T23:18:48.248Z,3.70
2022-11-23T23:21:20.406Z,3.50
2022-11-23T23:23:49.834Z,3.80
2022-11-23T23:26:18.751Z,4.13
2022-11-23T23:28:46.235Z,3.90
2022-11-23T23:31:16.620Z,3.60
2022-11-23T23:33:43.942Z,4.07
2022-11-23T23:36:13.208Z,4.30
2022-11-23T23:38:40.339Z,3.90
2022-11-23T23:41:08.698Z,4.57
2022-11-23T23:43:36.278Z,4.50
2022-11-23T23:46:06.190Z,4.20
2022-11-23T23:48:38.310Z,3.97
2022-11-23T23:51:06.803Z,4.10
2022-11-23T23:53:34.557Z,4.80
2022-11-23T23:56:04.323Z,4.00
2022-11-23T23:58:31.616Z,4.07
